Information for Honolulu Intl

back to airport list

ICAO Code:PHNL Country:USA
Airport Name:Honolulu Intl Is Hub:No
Latitude:21.3245 Longitude:-157.925
Scheduled Departures:0 Scheduled Arrivals:0
Total Past Departures:1 Total Past Arrivals:1
Pilots Based:0 Current Pilot Location:0
PHNL 242053Z 02010KT 10SM FEW026 SCT048 SCT060 29/17 A2999 RMK AO2 SLP156 T02940172 58001


Nearby Destination Airports

ICAO Airport Country GC Distance View
No destination airports within a 500 NM radius!


+ Show Timetable

Scheduled Departures from PHNL

Flight To Destination Days Dep. Time Aircraft Info
No Scheduled Departures!


Scheduled Arrivals to PHNL

Flight From Origin Days Arr. Time Aircraft Info
No Scheduled Arrivals!
+ Show Recent Flight Info

Recent Departures from PHNL

Flight To Destination Pilot Flighttime Landingrate Aircraft View
ASXC48 KLAX Los Angeles Krzysztof H. Blaszkow 05.33.38 -104 ft/m B738 View Report


Recent Arrivals to PHNL

Flight From Origin Pilot Flighttime Landingrate Aircraft View
ASXC43 PKMJ Marshall Islands International Airport Krzysztof H. Blaszkow 04.59.47 -145 ft/m B738 View Report
+ Show Pilot Information

Pilots based at PHNL

Avatar Pilot ID Name Location Rank View Profile
No Pilots are based at this airport!


Pilots currently at PHNL

Avatar Pilot ID Name Location Rank On Location since View Profile
Currently there are no pilots at this airport!
- Hide Map